Fesco Vladimir — 5BSL2 — position and weather

sailwx.info

Track history (hours):
 
Tides and Currents Weather Stations Pressure Air Temp Water Temp Dewpoint Dewpoint Depression Visibility Wind Speed Wind Dir Waves Ship Positions

Fesco Vladimir

Last reported at 2015-Aug-27 19:24 UTC. Time now 2015-Aug-28 00:18 UTC.
Position N 34°21' W 076°14'.

Length 184 m; draft 7.9 m.

Type: Cargo ship. MMSI: 209777000.

Date/timePositionNaut miles runAvg speedWind from/ knotsBaromVisibWave heightAir tempDewpointWater temp
2015-Aug-27 19:24N 34°21' W 076°14'21513.5
2015-Aug-27 03:29N 37°56' W 076°11'1617.6
2015-Aug-27 02:33N 38°12' W 076°15'3517.5
2015-Aug-27 00:31N 38°47' W 076°25'1717.2
2015-Aug-26 23:34N 39°03' W 076°23'1211.7
2015-Aug-26 22:33N 39°13' W 076°32'3 2.5
2015-Aug-26 21:33N 39°15' W 076°33'0 0.0
2015-Aug-26 20:33N 39°15' W 076°33'0 0.0
2015-Aug-26 19:15N 39°15' W 076°33'0 0.0
2015-Aug-26 18:33N 39°15' W 076°33'0 0.0
2015-Aug-26 17:33N 39°15' W 076°33'0 0.0
2015-Aug-26 16:33N 39°15' W 076°33'0 0.0
2015-Aug-26 15:27N 39°15' W 076°33'0 0.0
2015-Aug-26 14:33N 39°15' W 076°33'0 0.0
2015-Aug-26 13:33N 39°15' W 076°33'0 0.0
2015-Aug-26 12:09N 39°15' W 076°33'0 0.0
2015-Aug-26 11:27N 39°15' W 076°33'0 0.0
2015-Aug-26 10:27N 39°15' W 076°33'0 0.0
2015-Aug-26 09:33N 39°15' W 076°33'7 6.5
2015-Aug-26 08:33N 39°11' W 076°27'1615.9
2015-Aug-26 07:33N 38°55' W 076°23'1817.2
2015-Aug-26 06:32N 38°38' W 076°25'3517.4
2015-Aug-26 04:33N 38°04' W 076°13'95 5.2
2015-Aug-25 10:28N 38°22' W 074°14'1915.1
2015-Aug-25 09:15N 38°41' W 074°09'1115.2
2015-Aug-25 08:33N 38°51' W 074°07'1514.9
2015-Aug-25 07:32N 39°06' W 074°03'1514.7
2015-Aug-25 06:32N 39°20' W 073°59'1414.7
2015-Aug-25 05:33N 39°34' W 073°55'1514.6
2015-Aug-25 04:33N 39°48' W 073°52'1514.8
2015-Aug-25 03:33N 40°03' W 073°50'1514.8
2015-Aug-25 02:33N 40°18' W 073°49'1212.0
2015-Aug-25 01:34N 40°29' W 073°55'1312.8
2015-Aug-25 00:33N 40°39' W 074°06'3 3.3
2015-Aug-24 23:33N 40°41' W 074°09'0 0.0
2015-Aug-24 22:33N 40°41' W 074°09'0 0.0
2015-Aug-24 21:33N 40°41' W 074°09'0 0.0
2015-Aug-24 20:33N 40°41' W 074°09'0 0.0
2015-Aug-24 19:33N 40°41' W 074°09'0 0.0
2015-Aug-24 18:33N 40°41' W 074°09'0 0.0
2015-Aug-24 17:33N 40°41' W 074°09'0 0.0
2015-Aug-24 16:33N 40°41' W 074°09'0 0.0
2015-Aug-24 15:33N 40°41' W 074°09'0 0.0
2015-Aug-24 14:33N 40°41' W 074°09'0 0.0
2015-Aug-24 13:33N 40°41' W 074°09'0 0.0
2015-Aug-24 12:33N 40°41' W 074°09'0 0.0
2015-Aug-24 11:33N 40°41' W 074°09'2 1.8
2015-Aug-24 10:34N 40°39' W 074°09'5 4.8
2015-Aug-24 09:34N 40°37' W 074°03'1010.3
2015-Aug-24 08:34N 40°29' W 073°54'1110.8
2015-Aug-24 07:31N 40°28' W 073°40'1414.1
2015-Aug-24 06:33N 40°29' W 073°22'2014.6
2015-Aug-24 05:12N 40°30' W 072°56'914.5
2015-Aug-24 04:33N 40°30' W 072°44'1414.5
2015-Aug-24 03:33N 40°31' W 072°25'1414.4
2015-Aug-24 02:33N 40°31' W 072°06'1414.5
2015-Aug-24 01:33N 40°32' W 071°47'1414.3
2015-Aug-24 00:33N 40°32' W 071°28'1514.6
2015-Aug-23 23:33N 40°33' W 071°09'1514.6
2015-Aug-23 22:33N 40°32' W 070°50'1514.9
2015-Aug-23 21:33N 40°32' W 070°30'1514.6
2015-Aug-23 20:33N 40°33' W 070°11'1211.6
2015-Aug-23 19:33N 40°33' W 069°55'1514.6
2015-Aug-23 18:33N 40°34' W 069°36'1514.9
2015-Aug-23 17:33N 40°34' W 069°16'1514.7
2015-Aug-23 16:33N 40°31' W 068°57'1515.1
2015-Aug-23 15:33N 40°28' W 068°38'1614.9
2015-Aug-23 14:28N 40°24' W 068°17'1615.0
2015-Aug-23 13:23N 40°21' W 067°56'1814.8
2015-Aug-23 12:10N 40°17' W 067°33'  
Track history (hours):
 
Tides and Currents Weather Stations Pressure Air Temp Water Temp Dewpoint Dewpoint Depression Visibility Wind Speed Wind Dir Waves Ship Positions

Fesco Vladimir

Last reported at 2015-Aug-27 19:24 UTC. Time now 2015-Aug-28 00:18 UTC.
Position N 34°21' W 076°14'.

Length 184 m; draft 7.9 m.

Type: Cargo ship. MMSI: 209777000.

Date/timePositionNaut miles runAvg speedWind from/ knotsBaromVisibWave heightAir tempDewpointWater temp
2015-Aug-27 19:24N 34°21' W 076°14'21513.5
2015-Aug-27 03:29N 37°56' W 076°11'1617.6
2015-Aug-27 02:33N 38°12' W 076°15'3517.5
2015-Aug-27 00:31N 38°47' W 076°25'1717.2
2015-Aug-26 23:34N 39°03' W 076°23'1211.7
2015-Aug-26 22:33N 39°13' W 076°32'3 2.5
2015-Aug-26 21:33N 39°15' W 076°33'0 0.0
2015-Aug-26 20:33N 39°15' W 076°33'0 0.0
2015-Aug-26 19:15N 39°15' W 076°33'0 0.0
2015-Aug-26 18:33N 39°15' W 076°33'0 0.0
2015-Aug-26 17:33N 39°15' W 076°33'0 0.0
2015-Aug-26 16:33N 39°15' W 076°33'0 0.0
2015-Aug-26 15:27N 39°15' W 076°33'0 0.0
2015-Aug-26 14:33N 39°15' W 076°33'0 0.0
2015-Aug-26 13:33N 39°15' W 076°33'0 0.0
2015-Aug-26 12:09N 39°15' W 076°33'0 0.0
2015-Aug-26 11:27N 39°15' W 076°33'0 0.0
2015-Aug-26 10:27N 39°15' W 076°33'0 0.0
2015-Aug-26 09:33N 39°15' W 076°33'7 6.5
2015-Aug-26 08:33N 39°11' W 076°27'1615.9
2015-Aug-26 07:33N 38°55' W 076°23'1817.2
2015-Aug-26 06:32N 38°38' W 076°25'3517.4
2015-Aug-26 04:33N 38°04' W 076°13'95 5.2
2015-Aug-25 10:28N 38°22' W 074°14'1915.1
2015-Aug-25 09:15N 38°41' W 074°09'1115.2
2015-Aug-25 08:33N 38°51' W 074°07'1514.9
2015-Aug-25 07:32N 39°06' W 074°03'1514.7
2015-Aug-25 06:32N 39°20' W 073°59'1414.7
2015-Aug-25 05:33N 39°34' W 073°55'1514.6
2015-Aug-25 04:33N 39°48' W 073°52'1514.8
2015-Aug-25 03:33N 40°03' W 073°50'1514.8
2015-Aug-25 02:33N 40°18' W 073°49'1212.0
2015-Aug-25 01:34N 40°29' W 073°55'1312.8
2015-Aug-25 00:33N 40°39' W 074°06'3 3.3
2015-Aug-24 23:33N 40°41' W 074°09'0 0.0
2015-Aug-24 22:33N 40°41' W 074°09'0 0.0
2015-Aug-24 21:33N 40°41' W 074°09'0 0.0
2015-Aug-24 20:33N 40°41' W 074°09'0 0.0
2015-Aug-24 19:33N 40°41' W 074°09'0 0.0
2015-Aug-24 18:33N 40°41' W 074°09'0 0.0
2015-Aug-24 17:33N 40°41' W 074°09'0 0.0
2015-Aug-24 16:33N 40°41' W 074°09'0 0.0
2015-Aug-24 15:33N 40°41' W 074°09'0 0.0
2015-Aug-24 14:33N 40°41' W 074°09'0 0.0
2015-Aug-24 13:33N 40°41' W 074°09'0 0.0
2015-Aug-24 12:33N 40°41' W 074°09'0 0.0
2015-Aug-24 11:33N 40°41' W 074°09'2 1.8
2015-Aug-24 10:34N 40°39' W 074°09'5 4.8
2015-Aug-24 09:34N 40°37' W 074°03'1010.3
2015-Aug-24 08:34N 40°29' W 073°54'1110.8
2015-Aug-24 07:31N 40°28' W 073°40'1414.1
2015-Aug-24 06:33N 40°29' W 073°22'2014.6
2015-Aug-24 05:12N 40°30' W 072°56'914.5
2015-Aug-24 04:33N 40°30' W 072°44'1414.5
2015-Aug-24 03:33N 40°31' W 072°25'1414.4
2015-Aug-24 02:33N 40°31' W 072°06'1414.5
2015-Aug-24 01:33N 40°32' W 071°47'1414.3
2015-Aug-24 00:33N 40°32' W 071°28'1514.6
2015-Aug-23 23:33N 40°33' W 071°09'1514.6
2015-Aug-23 22:33N 40°32' W 070°50'1514.9
2015-Aug-23 21:33N 40°32' W 070°30'1514.6
2015-Aug-23 20:33N 40°33' W 070°11'1211.6
2015-Aug-23 19:33N 40°33' W 069°55'1514.6
2015-Aug-23 18:33N 40°34' W 069°36'1514.9
2015-Aug-23 17:33N 40°34' W 069°16'1514.7
2015-Aug-23 16:33N 40°31' W 068°57'1515.1
2015-Aug-23 15:33N 40°28' W 068°38'1614.9
2015-Aug-23 14:28N 40°24' W 068°17'1615.0
2015-Aug-23 13:23N 40°21' W 067°56'1814.8
2015-Aug-23 12:10N 40°17' W 067°33'  

Dump ship's entire track history